Time;durP1;ratioP1;P1;durP2;ratioP2;P2;SDS_P1;SDS_P2;PMS_P1;PMS_P2;Temp;Humidity;BMP_temperature;BMP_pressure;BME280_temperature;BME280_humidity;BME280_pressure;Samples;Min_cycle;Max_cycle;Signal;HPM_P1;HPM_P2
2021/10/11 00:00:24;;;;;;;19.40;14.57;;;;;;;4.25;83.09;96407.56;5060750;28;20241;-80
2021/10/11 00:02:50;;;;;;;23.43;15.33;;;;;;;4.24;83.21;96414.44;5077809;28;20173;-80
2021/10/11 00:05:16;;;;;;;26.03;18.10;;;;;;;4.28;82.93;96412.50;5060176;28;20185;-81
2021/10/11 00:07:41;;;;;;;29.73;19.90;;;;;;;4.29;82.80;96413.34;5061252;28;20193;-82
2021/10/11 00:10:08;;;;;;;30.07;19.77;;;;;;;4.29;82.59;96414.16;5076643;28;20185;-80
2021/10/11 00:12:33;;;;;;;21.57;17.30;;;;;;;4.28;82.98;96415.09;5076784;28;20187;-81
2021/10/11 00:14:59;;;;;;;24.63;17.50;;;;;;;4.26;82.43;96417.75;5076356;28;20549;-81
2021/10/11 00:17:24;;;;;;;22.97;17.33;;;;;;;4.24;82.88;96422.16;5076938;28;20216;-80
2021/10/11 00:19:51;;;;;;;20.13;15.00;;;;;;;4.23;82.65;96420.47;5076591;28;20188;-80
2021/10/11 00:22:20;;;;;;;20.27;15.90;;;;;;;4.21;82.99;96421.47;5059957;28;20184;-81
2021/10/11 00:24:46;;;;;;;20.90;15.00;;;;;;;4.24;83.06;96426.44;5059074;28;20230;-80
2021/10/11 00:27:12;;;;;;;18.43;13.23;;;;;;;4.36;82.46;96415.47;5060642;28;20713;-81
2021/10/11 00:29:37;;;;;;;19.67;13.43;;;;;;;4.29;82.54;96410.75;5076280;28;20519;-81
2021/10/11 00:32:03;;;;;;;19.63;13.53;;;;;;;4.24;82.88;96406.72;5076650;28;20199;-80
2021/10/11 00:34:32;;;;;;;21.13;13.77;;;;;;;4.24;82.69;96406.72;5062863;28;20183;-80
2021/10/11 00:36:57;;;;;;;16.60;12.87;;;;;;;4.25;82.85;96394.69;5060469;28;20557;-80
2021/10/11 00:39:22;;;;;;;18.23;12.73;;;;;;;4.34;82.65;96401.88;5035900;28;20209;-79
2021/10/11 00:41:48;;;;;;;18.87;13.47;;;;;;;4.37;82.44;96399.13;5056296;28;20182;-80
2021/10/11 00:44:13;;;;;;;18.03;12.03;;;;;;;4.34;82.36;96390.78;5055702;28;20752;-79
2021/10/11 00:46:38;;;;;;;17.87;13.03;;;;;;;4.30;82.52;96391.84;5056971;28;20177;-79
2021/10/11 00:49:04;;;;;;;16.17;12.37;;;;;;;4.24;83.00;96386.16;5039606;28;20202;-79
2021/10/11 00:51:29;;;;;;;18.70;12.93;;;;;;;4.27;83.36;96380.00;5068723;28;20274;-79
2021/10/11 00:53:55;;;;;;;18.77;12.67;;;;;;;4.28;82.75;96391.13;5038550;28;20178;-80
2021/10/11 00:56:20;;;;;;;20.57;13.67;;;;;;;4.28;82.81;96393.69;5036118;28;20288;-80
2021/10/11 00:58:46;;;;;;;18.07;13.10;;;;;;;4.24;83.09;96396.44;5036888;28;20281;-78
2021/10/11 01:01:11;;;;;;;18.90;13.00;;;;;;;4.18;82.71;96391.66;5038339;28;20220;-79
2021/10/11 01:03:37;;;;;;;19.33;12.70;;;;;;;4.13;82.89;96383.34;5019430;28;20216;-79
2021/10/11 01:06:03;;;;;;;18.93;13.40;;;;;;;4.10;83.26;96395.56;5037585;28;20174;-81
2021/10/11 01:08:28;;;;;;;18.17;12.70;;;;;;;4.04;83.77;96390.78;5036363;28;20436;-80
2021/10/11 01:10:56;;;;;;;17.07;11.87;;;;;;;4.01;83.75;96376.34;5037054;28;20185;-81
2021/10/11 01:13:21;;;;;;;21.60;12.67;;;;;;;3.91;83.68;96383.75;5020426;28;20600;-81
2021/10/11 01:15:47;;;;;;;15.73;12.00;;;;;;;3.83;83.73;96383.38;5019808;28;20212;-81
2021/10/11 01:18:12;;;;;;;18.00;12.37;;;;;;;3.82;84.01;96384.28;5038103;28;20302;-81
2021/10/11 01:20:38;;;;;;;19.03;12.50;;;;;;;3.78;83.72;96387.91;5019886;28;20190;-80
2021/10/11 01:23:03;;;;;;;17.43;12.00;;;;;;;3.79;84.37;96388.75;5036427;28;20190;-81
2021/10/11 01:25:28;;;;;;;17.30;11.77;;;;;;;3.74;83.91;96378.75;5018811;28;20189;-80
2021/10/11 01:27:53;;;;;;;16.33;11.17;;;;;;;3.65;84.41;96371.56;5018693;28;20195;-80
2021/10/11 01:30:19;;;;;;;18.60;11.50;;;;;;;3.58;84.20;96381.31;5035442;28;20198;-80
2021/10/11 01:32:45;;;;;;;16.33;11.03;;;;;;;3.53;84.40;96382.47;5016796;28;20244;-80
2021/10/11 01:35:11;;;;;;;16.23;11.50;;;;;;;3.49;84.33;96383.56;5018401;28;20178;-80
2021/10/11 01:37:37;;;;;;;15.57;11.10;;;;;;;3.44;84.25;96376.09;5035640;28;20226;-80
2021/10/11 01:40:04;;;;;;;16.27;11.83;;;;;;;3.41;84.40;96377.13;5019196;28;20189;-81
2021/10/11 01:42:29;;;;;;;14.57;11.23;;;;;;;3.34;84.74;96391.19;5036802;28;20197;-81
2021/10/11 01:44:54;;;;;;;18.40;11.53;;;;;;;3.32;84.71;96384.50;5051699;28;20189;-80
2021/10/11 01:47:22;;;;;;;14.10;10.47;;;;;;;3.32;84.61;96371.66;5019650;28;20243;-80
2021/10/11 01:49:47;;;;;;;15.37;11.00;;;;;;;3.29;84.58;96364.97;5036177;28;20174;-81
2021/10/11 01:52:13;;;;;;;13.67;10.47;;;;;;;3.29;84.40;96370.09;5036471;28;20190;-80
2021/10/11 01:54:38;;;;;;;14.33;10.67;;;;;;;3.29;84.81;96361.56;5035366;28;20182;-80
2021/10/11 01:57:03;;;;;;;15.13;10.53;;;;;;;3.26;84.63;96359.13;5037349;28;20278;-81
2021/10/11 01:59:29;;;;;;;16.47;11.00;;;;;;;3.22;84.52;96355.94;5019568;28;20646;-79
2021/10/11 02:01:54;;;;;;;15.20;9.93;;;;;;;3.21;84.72;96361.16;5035307;28;20174;-81
2021/10/11 02:04:19;;;;;;;14.57;10.70;;;;;;;3.20;84.43;96362.88;5034654;28;20184;-80
2021/10/11 02:06:44;;;;;;;13.73;10.80;;;;;;;3.19;84.48;96361.25;5036008;28;20498;-80
2021/10/11 02:09:10;;;;;;;16.63;11.27;;;;;;;3.19;84.65;96373.25;5019065;28;20759;-79
2021/10/11 02:11:35;;;;;;;15.60;10.43;;;;;;;3.15;84.81;96366.59;5035736;28;20264;-79
2021/10/11 02:14:00;;;;;;;13.17;10.20;;;;;;;3.18;84.48;96361.28;5019309;28;20190;-80
2021/10/11 02:16:26;;;;;;;20.67;10.57;;;;;;;3.17;84.30;96360.47;5019818;28;20263;-80
2021/10/11 02:18:51;;;;;;;13.50;10.30;;;;;;;3.17;84.63;96354.50;5037179;28;20205;-79
2021/10/11 02:21:16;;;;;;;13.57;10.00;;;;;;;3.14;84.14;96363.22;5019277;28;20727;-79
2021/10/11 02:23:42;;;;;;;17.80;10.37;;;;;;;3.11;84.45;96361.66;5036449;28;20181;-78
2021/10/11 02:26:07;;;;;;;15.77;10.30;;;;;;;3.09;84.27;96358.34;5036652;28;20515;-79
2021/10/11 02:28:32;;;;;;;15.67;11.03;;;;;;;3.07;84.35;96352.44;5036524;28;20191;-78
2021/10/11 02:30:58;;;;;;;12.03;9.63;;;;;;;3.08;84.22;96353.25;5035749;28;20178;-79
2021/10/11 02:33:23;;;;;;;14.10;10.03;;;;;;;3.06;84.39;96358.47;5050632;28;20280;-80
2021/10/11 02:35:48;;;;;;;15.07;10.20;;;;;;;3.06;84.21;96355.91;5051199;28;20178;-79
2021/10/11 02:38:14;;;;;;;15.37;10.47;;;;;;;3.04;84.58;96354.34;5035158;28;20217;-79
2021/10/11 02:40:39;;;;;;;14.60;10.27;;;;;;;3.00;84.72;96347.72;5036920;28;20181;-79
2021/10/11 02:43:05;;;;;;;14.27;9.43;;;;;;;2.96;84.65;96352.19;5020302;28;20202;-79
2021/10/11 02:45:30;;;;;;;12.77;9.37;;;;;;;2.95;84.67;96355.66;5055591;28;20187;-79
2021/10/11 02:47:55;;;;;;;13.90;10.57;;;;;;;2.94;84.96;96353.19;5040885;28;20204;-79
2021/10/11 02:50:20;;;;;;;12.87;9.77;;;;;;;2.91;84.86;96353.34;5039275;28;20472;-79
2021/10/11 02:52:47;;;;;;;13.53;10.23;;;;;;;2.90;84.87;96352.50;5039504;28;20189;-79
2021/10/11 02:55:12;;;;;;;13.10;9.93;;;;;;;2.90;84.81;96354.25;5038603;28;20182;-79
2021/10/11 02:57:38;;;;;;;12.57;10.13;;;;;;;2.90;85.23;96347.38;5038571;28;20211;-80
2021/10/11 03:00:04;;;;;;;14.00;9.90;;;;;;;2.92;85.02;96352.44;5022528;28;20220;-79
2021/10/11 03:02:30;;;;;;;15.07;9.90;;;;;;;2.90;85.15;96347.38;5040679;28;20547;-79
2021/10/11 03:04:55;;;;;;;12.70;9.37;;;;;;;2.90;85.33;96339.69;5039449;28;20238;-79
2021/10/11 03:07:20;;;;;;;13.80;9.63;;;;;;;2.91;85.23;96343.06;5038881;28;20712;-79
2021/10/11 03:09:46;;;;;;;14.53;11.20;;;;;;;2.93;84.81;96325.88;5022394;28;20213;-79
2021/10/11 03:12:11;;;;;;;15.80;9.77;;;;;;;2.91;85.40;96331.06;5055766;28;20204;-79
2021/10/11 03:14:37;;;;;;;13.73;10.90;;;;;;;2.88;85.29;96317.59;5039885;28;20188;-79
2021/10/11 03:17:02;;;;;;;16.80;11.17;;;;;;;2.86;85.15;96306.59;5039154;28;20228;-79
2021/10/11 03:19:28;;;;;;;15.93;10.73;;;;;;;2.87;85.27;96297.97;5041411;28;20178;-78
2021/10/11 03:21:53;;;;;;;15.77;10.77;;;;;;;2.83;85.88;96290.47;5057479;28;20209;-79
2021/10/11 03:24:18;;;;;;;12.90;10.33;;;;;;;2.81;85.68;96289.69;5040862;28;20185;-80
2021/10/11 03:26:44;;;;;;;15.03;10.17;;;;;;;2.78;85.88;96305.25;5040670;28;20177;-79
2021/10/11 03:29:09;;;;;;;15.27;10.30;;;;;;;2.81;85.98;96301.69;5040650;28;20196;-79
2021/10/11 03:31:34;;;;;;;14.37;10.60;;;;;;;2.81;86.40;96297.38;5022292;28;20242;-80
2021/10/11 03:34:00;;;;;;;16.37;10.90;;;;;;;2.81;86.86;96286.31;5019364;28;20177;-80
2021/10/11 03:36:25;;;;;;;16.13;11.00;;;;;;;2.79;86.80;96294.09;5040041;28;20212;-79
2021/10/11 03:38:50;;;;;;;14.83;10.60;;;;;;;2.82;86.50;96287.94;5037659;28;20678;-79
2021/10/11 03:41:16;;;;;;;15.03;10.43;;;;;;;2.74;86.76;96287.53;5038184;28;20185;-80
2021/10/11 03:43:41;;;;;;;13.60;10.57;;;;;;;2.72;86.56;96291.91;5037699;28;20189;-80
2021/10/11 03:46:06;;;;;;;16.03;10.47;;;;;;;2.74;86.96;96296.09;5054743;28;20216;-80
2021/10/11 03:48:32;;;;;;;16.70;11.07;;;;;;;2.72;86.99;96287.63;5040724;28;20709;-78
2021/10/11 03:50:58;;;;;;;15.60;11.60;;;;;;;2.82;88.01;96287.94;5054984;28;20170;-79
2021/10/11 03:53:23;;;;;;;17.10;12.53;;;;;;;2.96;87.97;96290.63;5038178;28;20231;-79
2021/10/11 03:55:48;;;;;;;18.53;11.70;;;;;;;3.06;87.78;96296.91;5053217;28;20189;-80
2021/10/11 03:58:14;;;;;;;14.07;10.60;;;;;;;3.05;87.63;96305.50;5038524;28;20213;-79
2021/10/11 04:00:39;;;;;;;16.07;11.53;;;;;;;3.09;87.67;96312.16;5037960;28;20195;-81
2021/10/11 04:03:06;;;;;;;22.43;12.07;;;;;;;3.17;88.02;96313.44;5038371;28;20262;-81
2021/10/11 04:05:32;;;;;;;22.00;11.73;;;;;;;3.12;87.83;96311.16;5023824;28;20182;-80
2021/10/11 04:08:01;;;;;;;18.27;11.20;;;;;;;3.18;87.34;96320.22;5056979;28;20195;-80
2021/10/11 04:10:31;;;;;;;14.57;10.50;;;;;;;3.20;87.48;96321.00;5024869;28;20281;-80
2021/10/11 04:13:02;;;;;;;17.43;12.43;;;;;;;3.18;87.36;96326.22;5053139;28;20206;-80
2021/10/11 04:15:27;;;;;;;14.97;10.60;;;;;;;3.12;87.57;96326.53;5054094;28;20193;-81
2021/10/11 04:17:55;;;;;;;16.83;11.47;;;;;;;3.09;87.34;96331.81;5021387;28;20624;-81
2021/10/11 04:20:21;;;;;;;16.17;11.80;;;;;;;3.05;87.46;96336.31;5054267;28;20176;-80
2021/10/11 04:22:46;;;;;;;16.80;11.90;;;;;;;3.08;87.29;96325.84;5038536;28;20211;-81
2021/10/11 04:25:12;;;;;;;14.83;11.77;;;;;;;3.09;87.20;96321.56;5052275;28;20198;-80
2021/10/11 04:27:39;;;;;;;18.10;11.63;;;;;;;3.04;87.31;96315.84;5022989;28;20562;-81
2021/10/11 04:30:05;;;;;;;16.83;11.53;;;;;;;3.03;87.34;96321.91;5022422;28;20695;-80
2021/10/11 04:32:30;;;;;;;14.43;11.33;;;;;;;2.99;87.57;96323.78;5021130;28;20817;-80
2021/10/11 04:34:55;;;;;;;16.00;11.20;;;;;;;2.98;87.67;96321.31;5034803;28;20189;-80
2021/10/11 04:37:21;;;;;;;16.13;12.03;;;;;;;2.94;87.55;96325.78;5019072;28;20212;-80
2021/10/11 04:39:46;;;;;;;15.47;11.37;;;;;;;2.92;87.88;96332.75;5056696;28;20280;-79
2021/10/11 04:42:11;;;;;;;18.40;11.67;;;;;;;2.92;87.96;96340.44;5075830;28;20175;-79
2021/10/11 04:44:37;;;;;;;16.80;11.50;;;;;;;2.94;88.33;96332.66;5075252;28;20663;-79
2021/10/11 04:47:02;;;;;;;17.13;11.77;;;;;;;2.94;88.04;96333.50;5076386;28;20666;-80
2021/10/11 04:49:27;;;;;;;16.97;11.23;;;;;;;2.99;87.89;96343.50;5076470;28;20193;-79
2021/10/11 04:51:53;;;;;;;16.13;11.63;;;;;;;3.02;88.24;96333.91;5075491;28;20649;-79
2021/10/11 04:54:18;;;;;;;19.07;12.37;;;;;;;3.06;88.09;96343.09;5073298;28;20554;-80
2021/10/11 04:56:43;;;;;;;17.13;12.97;;;;;;;3.11;87.99;96343.69;5074504;28;20270;-79
2021/10/11 04:59:09;;;;;;;18.50;12.60;;;;;;;3.16;87.87;96342.59;5075052;28;20202;-80
2021/10/11 05:01:34;;;;;;;21.33;14.30;;;;;;;3.25;87.70;96331.81;5074446;28;20208;-81
2021/10/11 05:03:59;;;;;;;16.87;13.13;;;;;;;3.26;87.68;96326.59;5073433;28;20652;-79
2021/10/11 05:06:25;;;;;;;18.53;13.13;;;;;;;3.25;87.93;96319.81;5073568;28;20253;-80
2021/10/11 05:08:50;;;;;;;17.00;11.70;;;;;;;3.24;87.69;96319.91;5074205;28;20212;-80
2021/10/11 05:11:15;;;;;;;18.37;12.47;;;;;;;3.21;87.79;96331.16;5075557;28;20610;-81
2021/10/11 05:13:40;;;;;;;14.77;11.80;;;;;;;3.19;87.75;96333.00;5074260;28;20180;-82
2021/10/11 05:16:11;;;;;;;21.17;12.47;;;;;;;3.15;87.47;96336.63;5077887;28;20641;-79
2021/10/11 05:18:36;;;;;;;17.07;11.73;;;;;;;3.11;88.09;96343.69;5076798;28;20223;-81
2021/10/11 05:21:02;;;;;;;21.03;12.30;;;;;;;3.10;87.72;96330.94;5067830;28;20184;-80
2021/10/11 05:23:30;;;;;;;12.87;11.00;;;;;;;3.11;87.96;96343.69;5047058;28;20180;-80
2021/10/11 05:25:55;;;;;;;14.50;10.73;;;;;;;3.07;87.55;96339.59;5061826;28;20523;-80
2021/10/11 05:28:21;;;;;;;14.10;11.87;;;;;;;3.06;87.71;96345.66;5063416;28;20189;-81
2021/10/11 05:30:48;;;;;;;19.43;11.30;;;;;;;3.08;87.75;96341.25;5064629;28;20182;-81
2021/10/11 05:33:13;;;;;;;16.07;12.00;;;;;;;3.13;87.57;96336.72;5059381;28;20209;-81
2021/10/11 05:35:39;;;;;;;17.70;11.57;;;;;;;3.13;87.58;96341.03;5044153;28;20192;-80
2021/10/11 05:38:05;;;;;;;13.43;10.93;;;;;;;3.14;87.76;96342.69;5054600;28;20231;-80
2021/10/11 05:40:31;;;;;;;16.57;11.47;;;;;;;3.14;87.24;96347.81;5066643;28;20187;-80
2021/10/11 05:42:57;;;;;;;19.43;12.13;;;;;;;3.15;88.06;96353.78;5068436;28;20569;-79
2021/10/11 05:45:23;;;;;;;14.87;11.50;;;;;;;3.17;87.52;96346.81;5056442;28;20186;-80
2021/10/11 05:47:48;;;;;;;15.83;11.53;;;;;;;3.18;87.48;96354.44;5063462;28;20217;-81
2021/10/11 05:50:13;;;;;;;16.63;11.73;;;;;;;3.20;87.81;96352.63;5067266;28;20851;-80
2021/10/11 05:52:39;;;;;;;20.30;13.03;;;;;;;3.23;87.61;96355.00;5076678;28;20238;-81
2021/10/11 05:55:05;;;;;;;15.87;12.50;;;;;;;3.25;87.18;96358.31;5075279;28;20194;-80
2021/10/11 05:57:32;;;;;;;18.73;11.57;;;;;;;3.31;87.08;96364.88;5068433;28;20211;-79
2021/10/11 05:59:58;;;;;;;18.03;11.70;;;;;;;3.35;87.21;96366.34;5041680;28;20209;-79
2021/10/11 06:02:23;;;;;;;16.90;11.17;;;;;;;3.42;86.95;96372.81;5048247;28;20196;-79
2021/10/11 06:04:48;;;;;;;17.10;11.57;;;;;;;3.50;86.58;96372.38;5039774;28;20663;-81
2021/10/11 06:07:13;;;;;;;17.70;12.43;;;;;;;3.58;86.56;96370.22;5058061;28;20228;-80
2021/10/11 06:09:39;;;;;;;17.17;11.70;;;;;;;3.69;86.82;96370.44;5061773;28;20188;-79
2021/10/11 06:12:04;;;;;;;18.77;12.07;;;;;;;3.77;86.13;96370.03;5074095;28;20574;-80
2021/10/11 06:14:29;;;;;;;21.03;12.20;;;;;;;3.88;85.39;96370.25;5050435;28;20181;-79
2021/10/11 06:16:55;;;;;;;24.50;12.37;;;;;;;3.98;85.73;96372.22;5069687;28;20211;-79
2021/10/11 06:19:20;;;;;;;18.63;11.73;;;;;;;4.12;85.17;96386.03;5067151;28;20198;-79
2021/10/11 06:21:45;;;;;;;16.00;11.20;;;;;;;4.18;84.79;96381.38;5084182;28;20530;-79
2021/10/11 06:24:12;;;;;;;14.70;10.60;;;;;;;4.27;84.76;96380.00;5080817;28;20177;-78
2021/10/11 06:26:37;;;;;;;16.27;11.73;;;;;;;4.33;84.45;96386.50;5080885;28;20619;-79
2021/10/11 06:29:03;;;;;;;15.00;11.70;;;;;;;4.36;84.13;96381.22;5079340;28;20263;-80
2021/10/11 06:31:28;;;;;;;18.70;13.10;;;;;;;4.43;84.54;96377.38;5081241;28;20180;-81
2021/10/11 06:33:53;;;;;;;16.30;10.97;;;;;;;4.44;84.27;96369.56;5077899;28;20177;-80
2021/10/11 06:36:19;;;;;;;16.33;11.77;;;;;;;4.50;84.16;96371.75;5071121;28;20179;-79
2021/10/11 06:38:44;;;;;;;14.97;12.10;;;;;;;4.56;84.00;96370.56;5067519;28;20579;-82
2021/10/11 06:41:09;;;;;;;15.70;12.37;;;;;;;4.61;83.77;96366.00;5049161;28;20197;-81
2021/10/11 06:43:35;;;;;;;16.37;11.63;;;;;;;4.65;83.65;96370.03;5066249;28;20193;-79
2021/10/11 06:46:00;;;;;;;15.03;12.03;;;;;;;4.78;83.66;96360.69;5076423;28;20497;-78
2021/10/11 06:48:26;;;;;;;17.87;12.53;;;;;;;4.87;83.62;96366.19;5068913;28;20285;-79
2021/10/11 06:50:52;;;;;;;13.67;11.97;;;;;;;4.98;83.23;96369.75;5067248;28;20214;-78
2021/10/11 06:53:17;;;;;;;15.23;12.27;;;;;;;5.10;82.76;96373.31;5063119;28;20204;-79
2021/10/11 06:55:42;;;;;;;14.20;12.57;;;;;;;5.20;82.17;96371.81;5054706;28;20216;-79
2021/10/11 06:58:08;;;;;;;15.53;11.10;;;;;;;5.34;81.82;96369.22;5079173;28;20216;-79
2021/10/11 07:00:33;;;;;;;14.40;11.33;;;;;;;5.50;81.63;96373.44;5075716;28;20656;-78
2021/10/11 07:02:59;;;;;;;14.97;11.70;;;;;;;5.64;81.76;96375.94;5080076;28;20310;-78
2021/10/11 07:05:25;;;;;;;16.30;12.17;;;;;;;5.71;80.83;96382.38;5081492;28;20260;-78
2021/10/11 07:07:50;;;;;;;16.00;12.40;;;;;;;5.83;80.92;96388.50;5083166;28;20196;-79
2021/10/11 07:10:15;;;;;;;16.30;12.63;;;;;;;5.90;80.40;96382.88;5070137;28;20209;-78
2021/10/11 07:12:41;;;;;;;14.70;11.43;;;;;;;6.01;80.13;96394.25;5072627;28;20177;-77
2021/10/11 07:15:07;;;;;;;15.57;10.93;;;;;;;6.13;79.99;96388.31;5072195;28;20181;-78
2021/10/11 07:17:32;;;;;;;15.10;11.43;;;;;;;6.28;79.42;96397.63;5072579;28;20205;-77
2021/10/11 07:19:58;;;;;;;17.33;11.03;;;;;;;6.34;79.03;96407.53;5057672;28;20173;-78
2021/10/11 07:22:23;;;;;;;17.03;11.83;;;;;;;6.43;78.96;96401.75;5073713;28;20181;-77
2021/10/11 07:24:49;;;;;;;16.33;11.17;;;;;;;6.57;78.83;96403.44;5077750;28;20184;-79
2021/10/11 07:27:14;;;;;;;13.17;10.93;;;;;;;6.72;78.82;96406.78;5066037;28;20172;-79
2021/10/11 07:29:40;;;;;;;14.17;10.00;;;;;;;6.81;78.41;96404.38;5085310;28;20177;-78
2021/10/11 07:32:07;;;;;;;15.20;10.60;;;;;;;6.93;77.77;96405.31;5068804;28;20184;-78
2021/10/11 07:34:33;;;;;;;11.70;10.50;;;;;;;7.02;77.43;96414.19;5052045;28;20193;-79
2021/10/11 07:36:58;;;;;;;17.17;11.07;;;;;;;7.12;77.32;96427.28;5066707;28;20220;-78
2021/10/11 07:39:24;;;;;;;17.03;12.43;;;;;;;7.23;76.68;96417.88;5038895;28;20203;-77
2021/10/11 07:41:50;;;;;;;18.43;14.23;;;;;;;7.31;76.18;96419.91;5059983;28;20173;-77
2021/10/11 07:44:15;;;;;;;18.27;14.67;;;;;;;7.43;76.06;96423.44;5042120;28;20197;-79
2021/10/11 07:46:40;;;;;;;19.53;13.73;;;;;;;7.61;75.00;96428.13;5060242;28;20177;-80
2021/10/11 07:49:06;;;;;;;17.23;11.90;;;;;;;7.76;74.43;96435.72;5058114;28;20669;-80
2021/10/11 07:51:31;;;;;;;16.50;12.90;;;;;;;7.85;73.28;96441.06;5059115;28;20204;-79
2021/10/11 07:53:57;;;;;;;15.73;12.03;;;;;;;7.94;72.42;96445.59;5075976;28;20188;-81
2021/10/11 07:56:22;;;;;;;18.23;11.90;;;;;;;8.04;72.65;96445.78;5083148;28;20204;-79
2021/10/11 07:58:47;;;;;;;14.90;11.70;;;;;;;8.07;72.85;96455.91;5065234;28;20220;-80
2021/10/11 08:01:13;;;;;;;16.30;11.77;;;;;;;8.06;72.51;96449.06;5066273;28;20246;-80
2021/10/11 08:03:38;;;;;;;15.10;11.87;;;;;;;8.05;72.37;96450.03;5064736;28;20173;-79
2021/10/11 08:06:04;;;;;;;17.50;12.13;;;;;;;8.04;72.38;96443.19;5065022;28;20174;-81
2021/10/11 08:08:32;;;;;;;17.83;11.90;;;;;;;8.10;71.78;96440.16;5065844;28;20596;-81
2021/10/11 08:10:58;;;;;;;21.43;12.00;;;;;;;8.13;72.03;96452.88;5082900;28;20178;-81
2021/10/11 08:13:23;;;;;;;16.00;11.07;;;;;;;8.23;71.28;96446.09;5065619;28;20196;-81
2021/10/11 08:15:49;;;;;;;19.57;12.03;;;;;;;8.18;71.60;96448.19;5065721;28;20250;-81
2021/10/11 08:18:15;;;;;;;16.20;11.77;;;;;;;8.24;70.40;96452.94;5064346;28;20237;-80
2021/10/11 08:20:41;;;;;;;19.87;12.50;;;;;;;8.34;70.34;96453.06;5079923;28;20193;-79
2021/10/11 08:23:09;;;;;;;16.03;12.13;;;;;;;8.46;69.72;96454.78;5064009;28;20178;-81
2021/10/11 08:25:36;;;;;;;19.33;12.80;;;;;;;8.43;69.54;96452.44;5062320;28;20253;-82
2021/10/11 08:28:02;;;;;;;18.57;12.97;;;;;;;8.43;67.51;96454.19;5047511;28;20197;-80
2021/10/11 08:30:28;;;;;;;17.70;12.70;;;;;;;8.57;68.94;96448.84;5058631;28;20207;-80
2021/10/11 08:32:53;;;;;;;15.03;11.70;;;;;;;8.67;68.96;96452.41;5060756;28;20269;-80
2021/10/11 08:35:18;;;;;;;16.37;11.53;;;;;;;8.71;68.08;96455.56;5062232;28;20193;-80
2021/10/11 08:37:44;;;;;;;15.47;11.80;;;;;;;8.90;68.89;96460.22;5078147;28;20705;-82
2021/10/11 08:40:10;;;;;;;16.23;11.97;;;;;;;9.03;67.63;96458.34;5045154;28;20676;-82
2021/10/11 08:42:36;;;;;;;16.73;12.17;;;;;;;9.13;66.90;96459.31;5042675;28;20190;-81
2021/10/11 08:45:02;;;;;;;17.53;12.47;;;;;;;9.34;67.24;96457.66;5040965;28;20277;-80
2021/10/11 08:47:27;;;;;;;16.57;12.10;;;;;;;9.51;67.28;96456.34;5058288;28;20627;-78
2021/10/11 08:49:53;;;;;;;20.00;13.30;;;;;;;9.63;67.18;96460.63;5041259;28;20186;-80
2021/10/11 08:52:23;;;;;;;20.80;12.17;;;;;;;9.81;66.79;96452.34;5057959;28;20202;-81
2021/10/11 08:54:49;;;;;;;17.27;12.33;;;;;;;9.92;65.95;96447.94;5041522;28;20174;-80
2021/10/11 08:57:29;;;;;;;17.77;12.97;;;;;;;9.99;64.63;96448.28;5042275;28;20204;-79
2021/10/11 09:00:06;;;;;;;18.17;12.93;;;;;;;9.97;63.30;96449.34;5047852;28;20185;-80
2021/10/11 09:02:32;;;;;;;15.23;11.37;;;;;;;10.03;61.61;96441.91;5063402;28;20212;-83
2021/10/11 09:04:57;;;;;;;15.30;11.37;;;;;;;9.99;61.44;96442.28;5045420;28;20181;-80
2021/10/11 09:07:24;;;;;;;17.43;12.77;;;;;;;9.94;61.12;96438.25;5046197;28;20192;-80
2021/10/11 09:09:51;;;;;;;16.03;12.27;;;;;;;10.00;60.95;96441.31;5057794;28;20189;-80
2021/10/11 09:12:27;;;;;;;25.47;14.27;;;;;;;9.91;60.36;96437.69;5057825;28;20186;-81
2021/10/11 09:15:03;;;;;;;19.57;13.13;;;;;;;9.94;61.12;96438.25;5043706;28;20633;-82
2021/10/11 09:17:32;;;;;;;18.80;11.97;;;;;;;10.12;61.94;96440.34;5061163;28;20205;-81
2021/10/11 09:20:08;;;;;;;16.97;12.73;;;;;;;10.05;61.18;96441.75;5077547;28;20228;-81
2021/10/11 09:22:35;;;;;;;16.43;11.67;;;;;;;9.99;61.53;96443.09;5049194;28;20184;-81
2021/10/11 09:25:00;;;;;;;17.47;12.63;;;;;;;10.02;59.67;96455.00;5078217;28;20207;-79
2021/10/11 09:27:26;;;;;;;14.87;11.53;;;;;;;9.98;60.50;96445.78;5061828;28;20189;-80
2021/10/11 09:29:51;;;;;;;15.73;12.40;;;;;;;10.06;61.74;96446.81;5070844;28;20203;-81
2021/10/11 09:32:16;;;;;;;20.90;13.23;;;;;;;10.06;61.10;96451.19;5063651;28;20181;-81
2021/10/11 09:34:42;;;;;;;17.60;13.30;;;;;;;9.90;60.36;96455.03;5076262;28;20548;-79
2021/10/11 09:37:10;;;;;;;17.80;12.27;;;;;;;9.88;61.30;96448.28;5071736;28;20676;-79
2021/10/11 09:39:37;;;;;;;15.73;11.70;;;;;;;9.88;60.73;96449.13;5057538;28;20234;-80
2021/10/11 09:42:05;;;;;;;18.10;12.10;;;;;;;9.77;61.12;96456.09;5076361;28;20612;-82
2021/10/11 09:44:30;;;;;;;15.00;11.83;;;;;;;9.78;61.61;96453.38;5074782;28;20173;-81
2021/10/11 09:47:11;;;;;;;19.20;13.17;;;;;;;9.74;61.20;96464.13;5078805;28;20178;-80
2021/10/11 09:49:38;;;;;;;18.77;12.63;;;;;;;9.70;62.16;96460.13;5080679;28;20698;-80
2021/10/11 09:52:04;;;;;;;19.47;13.93;;;;;;;9.70;61.71;96455.75;5068458;28;20607;-80
2021/10/11 09:54:29;;;;;;;16.17;12.73;;;;;;;9.96;63.18;96450.28;5072908;28;20222;-81
2021/10/11 09:56:55;;;;;;;16.63;12.67;;;;;;;9.84;63.15;96455.50;5073120;28;20281;-80
2021/10/11 09:59:20;;;;;;;17.33;13.37;;;;;;;9.91;62.77;96455.84;5075094;28;20199;-81
2021/10/11 10:01:47;;;;;;;15.17;13.23;;;;;;;9.91;63.03;96461.88;5076612;28;20367;-82
2021/10/11 10:04:17;;;;;;;17.73;13.50;;;;;;;9.97;64.57;96457.94;5064359;28;20184;-79
2021/10/11 10:06:46;;;;;;;20.10;14.43;;;;;;;9.96;64.18;96455.47;5082149;28;20196;-81
2021/10/11 10:09:12;;;;;;;18.27;13.50;;;;;;;10.02;65.25;96457.59;5086636;28;20197;-80
2021/10/11 10:11:38;;;;;;;18.17;13.13;;;;;;;9.94;66.64;96458.19;5077126;28;20672;-78
2021/10/11 10:14:05;;;;;;;17.47;13.23;;;;;;;9.85;66.75;96448.53;5043575;28;20767;-81
2021/10/11 10:16:32;;;;;;;18.30;14.57;;;;;;;10.13;65.89;96447.16;5073731;28;20280;-81
2021/10/11 10:19:09;;;;;;;19.63;13.60;;;;;;;10.17;65.79;96441.63;5050497;28;20209;-81
2021/10/11 10:21:36;;;;;;;16.47;13.20;;;;;;;10.20;64.81;96435.34;5061259;28;20196;-81
2021/10/11 10:24:02;;;;;;;20.47;14.47;;;;;;;10.24;65.66;96436.78;5060746;28;20185;-80
2021/10/11 10:26:35;;;;;;;18.97;14.40;;;;;;;10.20;65.74;96437.94;5077646;28;20223;-79
2021/10/11 10:29:15;;;;;;;21.10;13.83;;;;;;;10.28;65.30;96440.78;5049373;28;20216;-81
2021/10/11 10:31:41;;;;;;;18.60;13.87;;;;;;;10.30;64.97;96441.47;5057771;28;20181;-79
2021/10/11 10:34:17;;;;;;;17.40;12.77;;;;;;;10.35;65.20;96434.16;5061878;28;20203;-79
2021/10/11 10:36:44;;;;;;;21.33;13.53;;;;;;;10.25;64.93;96435.00;5060490;28;20205;-81
2021/10/11 10:39:11;;;;;;;17.83;13.00;;;;;;;10.34;64.58;96440.31;5062009;28;20283;-80
2021/10/11 10:41:38;;;;;;;16.93;12.17;;;;;;;10.52;64.29;96434.56;5077045;28;20758;-81
2021/10/11 10:44:17;;;;;;;14.70;12.20;;;;;;;10.50;63.63;96439.84;5067884;28;20239;-81
2021/10/11 10:46:56;;;;;;;17.33;13.23;;;;;;;10.54;63.05;96435.25;5058342;28;20188;-80
2021/10/11 10:49:37;;;;;;;17.47;11.73;;;;;;;10.61;61.21;96436.41;5076303;28;20581;-80
2021/10/11 10:52:10;;;;;;;15.57;12.03;;;;;;;10.54;60.95;96419.66;5075908;28;20176;-80
2021/10/11 10:54:40;;;;;;;18.17;12.27;;;;;;;10.71;62.44;96426.91;5074505;28;20181;-82
2021/10/11 10:57:06;;;;;;;21.40;13.33;;;;;;;10.65;62.34;96417.00;5050392;28;20208;-78
2021/10/11 10:59:32;;;;;;;15.73;12.33;;;;;;;10.67;62.47;96430.69;5065073;28;20177;-78
2021/10/11 11:02:04;;;;;;;17.03;11.83;;;;;;;10.74;61.97;96426.63;5064260;28;20226;-79
2021/10/11 11:04:29;;;;;;;17.80;11.00;;;;;;;10.83;59.71;96428.47;5082466;28;20680;-79
2021/10/11 11:07:00;;;;;;;17.97;11.57;;;;;;;10.86;59.88;96419.59;5075403;28;20184;-78
2021/10/11 11:09:40;;;;;;;14.93;11.80;;;;;;;10.93;58.13;96416.34;5067748;28;20660;-79
2021/10/11 11:12:05;;;;;;;13.30;10.63;;;;;;;11.06;58.65;96406.59;5065880;28;20257;-81
2021/10/11 11:14:31;;;;;;;15.30;11.53;;;;;;;10.92;59.05;96408.69;5067678;28;20507;-79
2021/10/11 11:16:56;;;;;;;15.40;12.20;;;;;;;11.04;59.26;96421.50;5080372;28;20197;-80
2021/10/11 11:19:22;;;;;;;15.90;12.37;;;;;;;10.99;59.02;96418.44;5077252;28;20711;-80